Time;durP1;ratioP1;P1;durP2;ratioP2;P2;SDS_P1;SDS_P2;PMS_P1;PMS_P2;Temp;Humidity;BMP_temperature;BMP_pressure;BME280_temperature;BME280_humidity;BME280_pressure;Samples;Min_cycle;Max_cycle;Signal;HPM_P1;HPM_P2
2022/01/27 00:04:47;;;;;;;21.50;9.23;;;0.40;99.90;;;;;;5094522;28;20622;-61
2022/01/27 00:07:13;;;;;;;18.75;8.82;;;0.40;99.90;;;;;;5090005;28;20036;-61
2022/01/27 00:10:05;;;;;;;23.67;9.82;;;0.40;99.90;;;;;;5093994;28;20518;-62
2022/01/27 00:12:30;;;;;;;22.20;9.73;;;0.40;99.90;;;;;;5102380;28;20097;-60
2022/01/27 00:15:08;;;;;;;22.63;9.45;;;0.40;99.90;;;;;;5100443;28;20492;-60
2022/01/27 00:17:39;;;;;;;24.92;9.18;;;0.30;99.90;;;;;;5094614;28;20536;-60
2022/01/27 00:20:05;;;;;;;23.55;8.85;;;0.40;99.90;;;;;;5078702;28;20082;-61
2022/01/27 00:22:31;;;;;;;21.85;8.48;;;0.30;99.90;;;;;;5078879;28;20043;-60
2022/01/27 00:24:56;;;;;;;23.55;8.38;;;0.30;99.90;;;;;;5081995;28;20507;-60
2022/01/27 00:27:22;;;;;;;22.17;9.20;;;0.30;99.90;;;;;;5087398;28;20094;-61
2022/01/27 00:29:47;;;;;;;20.08;8.75;;;0.30;99.90;;;;;;5080186;28;20040;-61
2022/01/27 00:32:13;;;;;;;23.67;9.43;;;0.30;99.90;;;;;;5075313;28;20040;-59
2022/01/27 00:34:39;;;;;;;20.88;9.32;;;0.30;99.90;;;;;;5083041;28;20040;-61
2022/01/27 00:37:04;;;;;;;21.33;8.88;;;0.40;99.90;;;;;;5085816;28;20058;-61
2022/01/27 00:39:30;;;;;;;23.45;9.43;;;0.40;99.90;;;;;;5081635;28;20037;-60
2022/01/27 00:41:56;;;;;;;25.60;9.73;;;0.40;99.90;;;;;;5074708;28;20036;-59
2022/01/27 00:44:21;;;;;;;20.65;9.45;;;0.30;99.90;;;;;;5083953;28;20058;-61
2022/01/27 00:46:47;;;;;;;23.85;9.63;;;0.40;99.90;;;;;;5086043;28;20040;-61
2022/01/27 00:49:13;;;;;;;23.77;9.52;;;0.40;99.90;;;;;;5085606;28;20074;-61
2022/01/27 00:51:42;;;;;;;22.55;9.70;;;0.40;99.90;;;;;;5077632;28;20803;-63
2022/01/27 00:54:16;;;;;;;22.08;9.52;;;0.40;99.90;;;;;;5084859;28;20433;-61
2022/01/27 01:02:10;;;;;;;29.55;10.93;;;0.40;99.90;;;;;;5079137;28;20035;-61
2022/01/27 01:04:39;;;;;;;25.92;10.63;;;0.40;99.90;;;;;;5080538;28;20044;-60
2022/01/27 01:07:06;;;;;;;30.10;11.10;;;0.40;99.90;;;;;;5085660;28;20040;-59
2022/01/27 01:14:44;;;;;;;32.28;11.88;;;0.40;99.90;;;;;;5085716;28;20040;-62
2022/01/27 01:33:12;;;;;;;37.08;14.85;;;0.30;99.90;;;;;;5087124;28;20090;-61
2022/01/27 01:35:49;;;;;;;45.67;16.60;;;0.30;99.90;;;;;;5080178;28;20100;-61
2022/01/27 01:38:18;;;;;;;44.55;16.95;;;0.30;99.90;;;;;;5079904;28;20079;-60
2022/01/27 01:40:46;;;;;;;42.50;15.02;;;0.30;99.90;;;;;;5075732;28;20652;-62
2022/01/27 01:43:12;;;;;;;42.30;16.50;;;0.20;99.90;;;;;;5081565;28;20712;-60
2022/01/27 01:45:37;;;;;;;48.50;16.58;;;0.30;99.90;;;;;;5079690;28;20147;-61
2022/01/27 01:48:03;;;;;;;50.67;17.73;;;0.30;99.90;;;;;;5086899;28;20082;-62
2022/01/27 01:50:29;;;;;;;43.08;16.90;;;0.20;99.90;;;;;;5078962;28;20071;-58
2022/01/27 01:52:55;;;;;;;47.28;17.85;;;0.30;99.90;;;;;;5087644;28;20496;-60
2022/01/27 01:55:20;;;;;;;46.22;16.60;;;0.20;99.90;;;;;;5080797;28;20089;-60
2022/01/27 01:57:46;;;;;;;45.33;17.50;;;0.30;99.90;;;;;;5086310;28;20032;-60
2022/01/27 02:00:13;;;;;;;44.88;17.92;;;0.30;99.90;;;;;;5085312;28;20042;-61
2022/01/27 02:02:40;;;;;;;54.22;19.08;;;0.20;99.90;;;;;;5086281;28;20044;-61
2022/01/27 02:05:06;;;;;;;48.20;18.45;;;0.20;99.90;;;;;;5081162;28;20038;-61
2022/01/27 02:18:07;;;;;;;43.67;17.48;;;0.30;99.90;;;;;;5086122;28;20547;-60
2022/01/27 02:20:34;;;;;;;43.85;18.10;;;0.30;99.90;;;;;;5083919;28;20047;-61
2022/01/27 02:23:02;;;;;;;38.58;17.35;;;0.30;99.90;;;;;;5085912;28;20043;-60
2022/01/27 02:25:28;;;;;;;49.28;19.27;;;0.30;99.90;;;;;;5079959;28;20040;-60
2022/01/27 02:27:58;;;;;;;44.35;17.20;;;0.40;99.90;;;;;;5087197;28;20032;-62
2022/01/27 02:30:24;;;;;;;45.47;18.58;;;0.30;99.90;;;;;;5077065;28;20102;-62
2022/01/27 02:32:52;;;;;;;44.08;18.98;;;0.40;99.90;;;;;;5078002;28;20040;-62
2022/01/27 02:35:24;;;;;;;51.05;20.25;;;0.40;99.90;;;;;;5078964;28;20059;-61
2022/01/27 02:37:50;;;;;;;47.72;19.13;;;0.30;99.90;;;;;;5082450;28;20032;-62
2022/01/27 02:40:28;;;;;;;49.83;20.95;;;0.30;99.90;;;;;;5079056;28;20143;-61
2022/01/27 02:42:54;;;;;;;50.60;19.83;;;0.20;99.90;;;;;;5084182;28;20036;-61
2022/01/27 02:45:44;;;;;;;57.80;20.05;;;0.20;99.90;;;;;;5076407;28;20051;-62
2022/01/27 02:48:11;;;;;;;54.95;20.60;;;0.20;99.90;;;;;;5079529;28;20040;-62
2022/01/27 02:50:37;;;;;;;52.78;20.63;;;0.20;99.90;;;;;;5083020;28;20392;-62
2022/01/27 02:53:03;;;;;;;43.22;18.75;;;0.20;99.90;;;;;;5086028;28;20064;-62
2022/01/27 02:55:28;;;;;;;47.70;19.35;;;0.20;99.90;;;;;;5081780;28;20507;-63
2022/01/27 02:57:56;;;;;;;50.92;19.05;;;0.10;99.90;;;;;;5084923;28;20434;-63
2022/01/27 03:00:22;;;;;;;52.03;19.35;;;0.20;99.90;;;;;;5084352;28;21268;-61
2022/01/27 03:02:47;;;;;;;44.55;17.98;;;0.20;99.90;;;;;;5086186;28;20115;-63
2022/01/27 03:05:13;;;;;;;50.30;19.30;;;0.10;99.90;;;;;;5084365;28;20565;-63
2022/01/27 03:07:38;;;;;;;51.33;20.95;;;0.10;99.90;;;;;;5077433;28;20043;-63
2022/01/27 03:10:04;;;;;;;50.30;21.50;;;0.00;99.90;;;;;;5078530;28;20036;-61
2022/01/27 03:12:32;;;;;;;53.70;21.90;;;0.00;99.90;;;;;;5069925;28;20036;-62
2022/01/27 03:14:58;;;;;;;51.97;20.73;;;-0.10;99.90;;;;;;5080839;28;20209;-61
2022/01/27 03:17:24;;;;;;;50.50;20.77;;;0.00;99.90;;;;;;5084227;28;20758;-62
2022/01/27 03:19:51;;;;;;;54.60;22.45;;;0.00;99.90;;;;;;5079460;28;20040;-61
2022/01/27 03:22:17;;;;;;;50.20;20.15;;;0.00;99.90;;;;;;5085423;28;20051;-60
2022/01/27 03:24:42;;;;;;;50.28;21.52;;;0.00;99.90;;;;;;5079377;28;20040;-62
2022/01/27 03:27:22;;;;;;;65.28;25.80;;;0.00;99.90;;;;;;5085934;28;20043;-62
2022/01/27 03:29:47;;;;;;;60.05;24.33;;;-0.10;99.90;;;;;;5079606;28;20036;-62
2022/01/27 03:32:13;;;;;;;53.42;23.08;;;-0.20;99.90;;;;;;5084103;28;20040;-62
2022/01/27 03:34:39;;;;;;;53.05;23.00;;;-0.10;99.90;;;;;;5074799;28;20063;-63
2022/01/27 03:37:05;;;;;;;62.70;25.83;;;-0.10;99.90;;;;;;5086453;28;20040;-62
2022/01/27 03:39:31;;;;;;;59.72;24.10;;;-0.10;99.90;;;;;;5081398;28;20048;-62
2022/01/27 03:41:57;;;;;;;56.97;24.33;;;-0.10;99.90;;;;;;5085879;28;20032;-61
2022/01/27 03:44:23;;;;;;;62.20;25.20;;;-0.10;99.90;;;;;;5081314;28;20151;-62
2022/01/27 03:46:50;;;;;;;66.22;24.35;;;0.00;99.90;;;;;;5083714;28;20129;-63
2022/01/27 03:49:16;;;;;;;56.95;24.88;;;0.00;99.90;;;;;;5081759;28;20047;-62
2022/01/27 03:51:42;;;;;;;64.55;25.05;;;0.00;99.90;;;;;;5074669;28;20044;-61
2022/01/27 03:54:08;;;;;;;65.10;25.63;;;0.00;99.90;;;;;;5080586;28;20068;-60
2022/01/27 03:56:34;;;;;;;58.00;24.65;;;0.00;99.90;;;;;;5089395;28;20496;-61
2022/01/27 03:59:00;;;;;;;60.50;24.08;;;0.00;99.90;;;;;;5085468;28;20054;-60
2022/01/27 04:01:26;;;;;;;57.55;21.77;;;0.00;99.90;;;;;;5087858;28;20679;-62
2022/01/27 04:03:55;;;;;;;59.92;21.73;;;-0.10;99.90;;;;;;5087426;28;20162;-61
2022/01/27 04:06:31;;;;;;;55.15;21.25;;;-0.10;99.90;;;;;;5088579;28;20055;-61
2022/01/27 04:08:56;;;;;;;54.60;21.52;;;-0.10;99.90;;;;;;5087293;28;20401;-60
2022/01/27 04:11:22;;;;;;;52.03;20.75;;;-0.20;99.90;;;;;;5084852;28;20036;-62
2022/01/27 04:13:47;;;;;;;50.10;18.25;;;-0.20;99.90;;;;;;5087047;28;20032;-62
2022/01/27 04:16:13;;;;;;;57.45;20.65;;;-0.20;99.90;;;;;;5082774;28;20040;-61
2022/01/27 04:18:38;;;;;;;59.40;21.75;;;-0.20;99.90;;;;;;5088903;28;20039;-63
2022/01/27 04:21:04;;;;;;;50.25;19.67;;;-0.20;99.90;;;;;;5084711;28;20113;-62
2022/01/27 04:23:29;;;;;;;63.40;21.85;;;-0.30;99.90;;;;;;5088997;28;20161;-62
2022/01/27 04:25:55;;;;;;;54.17;19.85;;;-0.30;99.90;;;;;;5088143;28;20047;-58
2022/01/27 04:28:29;;;;;;;52.33;20.42;;;-0.30;99.90;;;;;;5087985;28;20491;-60
2022/01/27 04:30:56;;;;;;;53.40;19.95;;;-0.30;99.90;;;;;;5086227;28;20636;-61
2022/01/27 04:33:25;;;;;;;55.80;20.00;;;-0.20;99.90;;;;;;5088351;28;20844;-60
2022/01/27 04:35:53;;;;;;;54.30;20.45;;;-0.20;99.90;;;;;;5077120;28;20040;-60
2022/01/27 04:38:46;;;;;;;59.83;20.10;;;-0.20;99.90;;;;;;5083594;28;20797;-60
2022/01/27 04:41:30;;;;;;;56.55;19.42;;;-0.30;99.90;;;;;;5071425;28;20032;-62
2022/01/27 04:44:04;;;;;;;56.33;20.35;;;-0.30;99.90;;;;;;5079172;28;20492;-60
2022/01/27 04:49:00;;;;;;;56.40;20.50;;;-0.30;99.90;;;;;;5079780;28;20040;-63
2022/01/27 04:51:26;;;;;;;60.47;21.00;;;-0.20;99.90;;;;;;5077193;28;20546;-60
2022/01/27 04:54:11;;;;;;;59.60;20.13;;;-0.20;99.90;;;;;;5078323;28;20048;-62
2022/01/27 04:56:39;;;;;;;52.08;19.88;;;-0.20;99.90;;;;;;5085411;28;20675;-62
2022/01/27 05:02:46;;;;;;;54.05;20.02;;;-0.20;99.90;;;;;;5062783;28;20037;-62
2022/01/27 05:05:12;;;;;;;59.80;19.23;;;-0.20;99.90;;;;;;5075709;28;20032;-64
2022/01/27 05:07:39;;;;;;;48.35;18.92;;;-0.20;99.90;;;;;;5080571;28;20040;-62
2022/01/27 05:10:12;;;;;;;52.58;21.25;;;-0.20;99.90;;;;;;5078208;28;20112;-62
2022/01/27 05:12:48;;;;;;;54.28;19.40;;;-0.20;99.90;;;;;;5079563;28;20082;-64
2022/01/27 05:15:13;;;;;;;54.30;20.17;;;-0.20;99.90;;;;;;5082767;28;20036;-63
2022/01/27 05:17:39;;;;;;;49.45;18.83;;;-0.20;99.90;;;;;;5104845;28;20043;-63
2022/01/27 05:20:05;;;;;;;51.75;17.83;;;-0.20;99.90;;;;;;5100622;28;20039;-61
2022/01/27 05:22:34;;;;;;;52.08;18.52;;;-0.10;99.90;;;;;;5098419;28;20088;-65
2022/01/27 05:25:00;;;;;;;44.58;17.13;;;-0.10;99.90;;;;;;5100262;28;20114;-63
2022/01/27 05:27:25;;;;;;;42.85;17.08;;;-0.20;99.90;;;;;;5107328;28;20135;-60
2022/01/27 05:29:52;;;;;;;43.15;16.17;;;-0.10;99.90;;;;;;5102486;28;20031;-60
2022/01/27 05:32:19;;;;;;;45.08;16.10;;;-0.10;99.90;;;;;;5080438;28;20032;-64
2022/01/27 05:34:45;;;;;;;44.97;16.80;;;0.00;99.90;;;;;;5079944;28;20043;-65
2022/01/27 05:37:10;;;;;;;41.97;16.20;;;-0.10;99.90;;;;;;5076706;28;20749;-61
2022/01/27 05:39:36;;;;;;;48.17;17.60;;;0.00;99.90;;;;;;5072569;28;20043;-57
2022/01/27 05:42:03;;;;;;;40.90;16.75;;;0.00;99.90;;;;;;5073041;28;20044;-61
2022/01/27 05:44:30;;;;;;;50.75;18.60;;;0.10;99.90;;;;;;5080736;28;20048;-61
2022/01/27 06:21:53;;;;;;;53.55;20.30;;;0.00;99.90;;;;;;5137035;27;20422;-57
2022/01/27 06:24:41;;;;;;;54.85;19.80;;;0.30;99.90;;;;;;5132650;27;20030;-60
2022/01/27 06:27:26;;;;;;;46.45;19.40;;;0.30;99.90;;;;;;5135618;27;20543;-61
2022/01/27 06:30:12;;;;;;;56.30;20.53;;;0.40;99.90;;;;;;5134124;27;20108;-60
2022/01/27 06:32:58;;;;;;;49.47;18.48;;;0.30;99.90;;;;;;5131911;27;20015;-59
2022/01/27 06:35:44;;;;;;;45.70;20.17;;;0.40;99.90;;;;;;5119676;27;20030;-60
2022/01/27 06:38:30;;;;;;;54.78;20.80;;;0.40;99.90;;;;;;5139266;27;20024;-61
2022/01/27 06:41:16;;;;;;;57.28;21.25;;;0.40;99.90;;;;;;5128507;27;20074;-60
2022/01/27 06:44:04;;;;;;;50.40;19.07;;;0.40;99.90;;;;;;5113923;27;20089;-60
2022/01/27 06:46:50;;;;;;;56.30;20.15;;;0.40;99.90;;;;;;5129085;27;20034;-60
2022/01/27 06:49:36;;;;;;;48.95;18.55;;;0.50;99.90;;;;;;5136268;27;20137;-59
2022/01/27 06:52:25;;;;;;;51.97;20.10;;;0.50;99.90;;;;;;5126433;27;20039;-59
2022/01/27 06:55:14;;;;;;;47.63;17.98;;;0.50;99.90;;;;;;5128436;27;20052;-59
2022/01/27 06:58:00;;;;;;;52.75;18.50;;;0.60;99.90;;;;;;5121756;27;20076;-60
2022/01/27 07:00:46;;;;;;;54.33;21.30;;;0.60;99.90;;;;;;5123578;27;20527;-59
2022/01/27 07:03:32;;;;;;;55.42;20.50;;;0.60;99.90;;;;;;5134104;27;20035;-60
2022/01/27 07:06:18;;;;;;;53.07;20.40;;;0.60;99.90;;;;;;5135809;27;20771;-60
2022/01/27 07:09:04;;;;;;;56.22;20.48;;;0.70;99.90;;;;;;5134248;27;20035;-58
2022/01/27 07:11:50;;;;;;;49.03;18.95;;;0.70;99.90;;;;;;5137661;27;20034;-60
2022/01/27 07:14:36;;;;;;;54.75;20.02;;;0.70;99.90;;;;;;5118970;27;20023;-56
2022/01/27 07:17:22;;;;;;;49.38;19.55;;;0.70;99.90;;;;;;5130592;27;20041;-61
2022/01/27 07:20:09;;;;;;;42.63;17.98;;;0.70;99.90;;;;;;5135299;27;20027;-60
2022/01/27 07:22:55;;;;;;;50.47;20.63;;;0.80;99.90;;;;;;5114271;27;20758;-60
2022/01/27 07:25:41;;;;;;;50.05;20.83;;;0.80;99.90;;;;;;5117760;27;20028;-59
2022/01/27 07:28:27;;;;;;;51.35;20.00;;;0.80;99.90;;;;;;5119416;27;20446;-59
2022/01/27 07:31:13;;;;;;;49.90;19.00;;;0.90;99.90;;;;;;5111741;27;20040;-61
2022/01/27 07:33:59;;;;;;;58.70;21.17;;;0.90;99.90;;;;;;5104856;27;20031;-60
2022/01/27 07:36:45;;;;;;;56.13;22.45;;;0.90;99.90;;;;;;5122993;27;20038;-61
2022/01/27 07:39:30;;;;;;;46.38;21.23;;;0.90;99.90;;;;;;5116939;27;20117;-61
2022/01/27 07:42:16;;;;;;;45.93;19.97;;;1.00;99.90;;;;;;5110949;27;20023;-59
2022/01/27 07:45:03;;;;;;;44.87;17.50;;;1.00;99.90;;;;;;5116822;27;20118;-59
2022/01/27 07:47:49;;;;;;;;;;;1.20;99.90;;;;;;5116041;27;20023;-60
2022/01/27 07:50:35;;;;;;;42.15;17.42;;;1.20;99.90;;;;;;5107947;27;19958;-62
2022/01/27 07:53:21;;;;;;;47.05;18.30;;;1.20;99.90;;;;;;5118803;27;20035;-60
2022/01/27 07:56:07;;;;;;;42.45;17.13;;;1.30;99.90;;;;;;5112091;27;20038;-61
2022/01/27 07:58:53;;;;;;;40.20;18.70;;;1.40;99.90;;;;;;5127714;27;20069;-60
2022/01/27 08:01:39;;;;;;;44.13;18.33;;;1.40;99.90;;;;;;5112541;27;20344;-60
2022/01/27 08:04:26;;;;;;;41.72;18.17;;;1.50;99.90;;;;;;5131844;27;20034;-61
2022/01/27 08:07:13;;;;;;;42.20;18.83;;;1.50;99.90;;;;;;5114497;27;20114;-61
2022/01/27 08:09:58;;;;;;;;;;;1.60;99.90;;;;;;5109644;27;20047;-60
2022/01/27 08:12:44;;;;;;;40.65;16.80;;;1.70;99.90;;;;;;5108855;27;20645;-62
2022/01/27 08:15:31;;;;;;;40.85;18.25;;;1.70;99.90;;;;;;5117665;27;20038;-60
2022/01/27 08:18:17;;;;;;;42.97;17.50;;;1.70;99.90;;;;;;5126773;27;20087;-61
2022/01/27 08:21:04;;;;;;;41.88;18.45;;;1.70;99.90;;;;;;5119444;27;20031;-60
2022/01/27 08:23:51;;;;;;;;;;;1.70;99.90;;;;;;5127975;27;20035;-61
2022/01/27 08:26:40;;;;;;;45.55;18.10;;;1.80;99.90;;;;;;5109122;27;19919;-61
2022/01/27 08:29:33;;;;;;;46.10;18.65;;;1.70;99.90;;;;;;5118747;27;20027;-61
2022/01/27 08:32:30;;;;;;;44.63;18.75;;;1.70;99.90;;;;;;5110579;27;20106;-61
2022/01/27 08:35:18;;;;;;;45.45;19.23;;;1.70;99.90;;;;;;5108934;27;20122;-61
2022/01/27 08:38:04;;;;;;;43.33;18.48;;;1.70;99.90;;;;;;5123827;27;20019;-61
2022/01/27 08:40:50;;;;;;;43.13;18.25;;;1.70;99.90;;;;;;5106522;27;20043;-62
2022/01/27 08:43:36;;;;;;;44.97;18.80;;;1.70;99.90;;;;;;5109231;27;20038;-60
2022/01/27 08:46:22;;;;;;;45.30;17.73;;;1.70;99.90;;;;;;5111253;27;20065;-60
2022/01/27 08:49:08;;;;;;;44.03;20.17;;;1.70;99.90;;;;;;5115151;27;20086;-61
2022/01/27 08:51:55;;;;;;;44.83;18.75;;;1.80;99.90;;;;;;5109573;27;20023;-61
2022/01/27 08:54:42;;;;;;;45.00;17.95;;;1.80;99.90;;;;;;5116970;27;20722;-59
2022/01/27 08:57:28;;;;;;;41.13;16.50;;;1.90;99.90;;;;;;5110561;27;20027;-61
2022/01/27 09:00:15;;;;;;;49.60;20.90;;;2.00;99.90;;;;;;5116732;27;20050;-61
2022/01/27 09:03:01;;;;;;;;;;;2.00;99.90;;;;;;5122980;27;20272;-61
2022/01/27 09:05:46;;;;;;;33.55;14.18;;;2.00;99.90;;;;;;5105358;27;20536;-61
2022/01/27 09:08:32;;;;;;;23.42;10.63;;;2.00;99.90;;;;;;5116438;27;20030;-60
2022/01/27 09:11:18;;;;;;;34.90;12.52;;;2.00;99.90;;;;;;5109592;27;20100;-62
2022/01/27 09:14:04;;;;;;;27.37;11.03;;;2.00;99.90;;;;;;5090629;27;20088;-61
2022/01/27 09:16:50;;;;;;;23.52;10.85;;;2.00;99.90;;;;;;5112308;27;20031;-61
2022/01/27 09:19:39;;;;;;;23.05;11.05;;;2.00;99.90;;;;;;5098375;27;20179;-61
2022/01/27 09:22:25;;;;;;;21.42;9.88;;;2.10;99.90;;;;;;5097921;27;20035;-59
2022/01/27 09:25:19;;;;;;;20.48;9.52;;;2.10;99.90;;;;;;5127930;27;20876;-61
2022/01/27 09:28:06;;;;;;;19.77;8.93;;;2.10;99.90;;;;;;5113997;27;20038;-61
2022/01/27 09:30:52;;;;;;;;;;;2.10;99.90;;;;;;5105387;27;20110;-61
2022/01/27 09:33:38;;;;;;;19.55;8.10;;;2.10;99.90;;;;;;5125872;27;19946;-60
2022/01/27 09:36:24;;;;;;;22.60;8.77;;;2.10;99.90;;;;;;5118902;27;20038;-60
2022/01/27 09:39:11;;;;;;;17.98;7.13;;;2.10;99.90;;;;;;5114942;27;20305;-60
2022/01/27 09:41:58;;;;;;;14.90;7.18;;;2.20;99.90;;;;;;5108879;27;20443;-61
2022/01/27 09:44:51;;;;;;;15.18;7.80;;;2.20;99.90;;;;;;5118300;27;20035;-61
2022/01/27 09:47:41;;;;;;;16.42;7.72;;;2.20;99.90;;;;;;5111121;27;20558;-61
2022/01/27 09:50:46;;;;;;;17.33;7.88;;;2.20;99.90;;;;;;5114620;27;20067;-61
2022/01/27 09:53:32;;;;;;;14.73;7.10;;;2.20;99.90;;;;;;5125959;27;20027;-60
2022/01/27 09:56:19;;;;;;;15.53;7.07;;;2.20;99.90;;;;;;5120408;27;20035;-61
2022/01/27 09:59:06;;;;;;;12.40;6.38;;;2.20;99.90;;;;;;5114139;27;20682;-60
2022/01/27 10:01:55;;;;;;;13.20;6.50;;;2.30;99.90;;;;;;5108194;27;20642;-61
2022/01/27 10:04:43;;;;;;;14.20;5.80;;;2.30;99.90;;;;;;5119011;27;20679;-61
2022/01/27 10:07:40;;;;;;;9.23;5.10;;;2.40;99.90;;;;;;5124786;27;20103;-58
2022/01/27 10:10:26;;;;;;;10.30;4.85;;;2.40;99.90;;;;;;5112969;28;20039;-62
2022/01/27 10:13:30;;;;;;;10.07;4.93;;;2.40;99.90;;;;;;5106050;27;20039;-61
2022/01/27 10:16:41;;;;;;;8.85;4.10;;;2.40;99.90;;;;;;5096125;27;20754;-61
2022/01/27 10:19:28;;;;;;;6.65;3.65;;;2.60;99.90;;;;;;5127876;27;20566;-61
2022/01/27 10:22:13;;;;;;;5.20;3.22;;;2.50;99.90;;;;;;5112386;27;20585;-59
2022/01/27 10:25:02;;;;;;;4.68;2.92;;;2.50;99.90;;;;;;5122803;27;20024;-61
2022/01/27 10:28:08;;;;;;;10.93;3.20;;;2.50;99.90;;;;;;5119819;27;20023;-61
2022/01/27 10:31:05;;;;;;;7.07;3.58;;;2.60;99.90;;;;;;5112801;28;20748;-61
2022/01/27 10:33:53;;;;;;;6.68;3.08;;;2.60;99.90;;;;;;5112322;28;20061;-61
2022/01/27 10:36:44;;;;;;;6.82;3.35;;;2.60;99.90;;;;;;5095186;27;20033;-63
2022/01/27 10:39:30;;;;;;;7.95;3.45;;;2.60;99.90;;;;;;5112754;27;20643;-61
2022/01/27 10:42:21;;;;;;;6.10;2.58;;;2.70;99.90;;;;;;5108289;27;20182;-60
2022/01/27 10:45:07;;;;;;;5.18;2.70;;;2.70;99.90;;;;;;5113040;28;20623;-61
2022/01/27 10:48:23;;;;;;;5.97;2.65;;;2.60;99.90;;;;;;5118883;27;20085;-61
2022/01/27 10:51:19;;;;;;;4.60;2.55;;;2.70;99.90;;;;;;5104892;27;20651;-61
2022/01/27 10:54:06;;;;;;;4.32;2.20;;;2.70;99.90;;;;;;5099009;28;20027;-59
2022/01/27 10:56:52;;;;;;;4.10;1.92;;;2.70;99.90;;;;;;5112985;27;20091;-61
2022/01/27 10:59:39;;;;;;;4.17;2.23;;;2.70;99.90;;;;;;5104448;27;20506;-56
2022/01/27 11:02:25;;;;;;;2.97;1.85;;;2.80;99.90;;;;;;5112541;27;20027;-59
2022/01/27 11:05:22;;;;;;;4.47;2.00;;;2.80;99.90;;;;;;5122269;27;20442;-60
2022/01/27 11:08:08;;;;;;;4.25;1.83;;;2.80;99.90;;;;;;5122154;27;20026;-61
2022/01/27 11:10:54;;;;;;;4.13;1.93;;;2.80;99.90;;;;;;5112249;27;20038;-62
2022/01/27 11:13:43;;;;;;;2.50;1.80;;;2.80;99.90;;;;;;5120229;27;20027;-60
2022/01/27 11:16:35;;;;;;;2.47;1.58;;;2.80;99.90;;;;;;5112165;27;20030;-62
2022/01/27 11:25:49;;;;;;;1.85;1.30;;;2.80;99.90;;;;;;5028213;28;20040;-60
2022/01/27 11:28:15;;;;;;;1.67;1.10;;;2.90;99.90;;;;;;5054255;27;20033;-60
2022/01/27 11:31:28;;;;;;;1.50;1.13;;;2.90;99.90;;;;;;5022523;28;20036;-59
2022/01/27 11:34:14;;;;;;;2.85;1.40;;;2.90;99.90;;;;;;5024058;27;20052;-59
2022/01/27 11:37:05;;;;;;;4.23;1.23;;;3.00;99.90;;;;;;5060876;27;20579;-59
2022/01/27 11:39:56;;;;;;;3.92;1.10;;;3.00;99.90;;;;;;5023892;28;20382;-59
2022/01/27 11:42:54;;;;;;;1.35;0.90;;;3.00;99.90;;;;;;5061463;28;20112;-59
2022/01/27 11:45:46;;;;;;;3.22;0.90;;;3.00;99.90;;;;;;5028170;28;20112;-59
2022/01/27 11:48:32;;;;;;;1.92;0.82;;;3.00;99.90;;;;;;5090547;27;20033;-60
2022/01/27 11:51:18;;;;;;;1.13;0.70;;;3.00;99.90;;;;;;5032990;27;20048;-57
2022/01/27 11:54:25;;;;;;;1.02;0.80;;;3.00;99.90;;;;;;5041588;27;20269;-59
2022/01/27 11:57:40;;;;;;;0.82;0.75;;;3.10;99.90;;;;;;5065948;27;20571;-59
2022/01/27 12:00:30;;;;;;;1.25;0.45;;;3.10;99.90;;;;;;5024222;28;20037;-59
2022/01/27 12:03:16;;;;;;;0.90;0.60;;;3.10;99.90;;;;;;5054484;27;20057;-59
2022/01/27 12:06:20;;;;;;;3.07;0.43;;;3.10;99.90;;;;;;5027874;28;20804;-59
2022/01/27 12:09:19;;;;;;;0.98;0.65;;;3.10;99.90;;;;;;5021783;28;20036;-59
2022/01/27 12:12:24;;;;;;;1.42;0.52;;;3.10;99.90;;;;;;5036828;27;20125;-60
2022/01/27 12:15:11;;;;;;;0.80;0.50;;;3.10;99.90;;;;;;5064819;28;20029;-59
2022/01/27 12:18:36;;;;;;;0.90;0.65;;;3.10;99.90;;;;;;5043422;27;20029;-58
2022/01/27 12:21:39;;;;;;;0.20;0.20;;;3.10;99.90;;;;;;5099157;27;20662;-57
2022/01/27 12:24:28;;;;;;;0.45;0.32;;;3.20;99.90;;;;;;5120841;27;20030;-59
2022/01/27 12:27:18;;;;;;;0.40;0.30;;;3.10;99.90;;;;;;5113702;27;20817;-60
2022/01/27 12:30:07;;;;;;;0.60;0.40;;;3.20;99.90;;;;;;5130957;27;20031;-60
2022/01/27 12:32:58;;;;;;;8.32;4.38;;;3.20;99.90;;;;;;5116246;27;20799;-59
2022/01/27 12:35:53;;;;;;;3.50;1.52;;;3.20;99.90;;;;;;5106042;27;20034;-59
2022/01/27 12:38:39;;;;;;;5.00;2.05;;;3.30;99.90;;;;;;5093164;27;20027;-59
2022/01/27 12:41:27;;;;;;;0.47;0.40;;;3.20;99.90;;;;;;5119111;27;20034;-59
2022/01/27 12:44:13;;;;;;;0.40;0.30;;;3.20;99.90;;;;;;5117683;27;20038;-58
2022/01/27 12:47:13;;;;;;;0.50;0.40;;;3.20;99.90;;;;;;5109552;27;20030;-59
2022/01/27 12:50:08;;;;;;;1.35;0.32;;;3.20;99.90;;;;;;5125915;27;20520;-61
2022/01/27 12:53:00;;;;;;;0.90;0.40;;;3.20;99.90;;;;;;5113174;27;20042;-61
2022/01/27 12:55:46;;;;;;;0.60;0.30;;;3.20;99.90;;;;;;5106931;27;20038;-59
2022/01/27 12:58:32;;;;;;;0.20;0.20;;;3.30;99.90;;;;;;5103597;27;20026;-59
2022/01/27 13:01:19;;;;;;;0.40;0.30;;;3.30;99.90;;;;;;5118039;27;20034;-60
2022/01/27 13:04:06;;;;;;;0.50;0.25;;;3.30;99.90;;;;;;5115614;27;20023;-61
2022/01/27 13:06:56;;;;;;;0.40;0.28;;;3.30;99.90;;;;;;5109195;27;20055;-59
2022/01/27 13:09:43;;;;;;;0.73;0.30;;;3.30;99.90;;;;;;5117778;27;20444;-59
2022/01/27 13:12:36;;;;;;;0.35;0.20;;;3.30;99.90;;;;;;5113551;27;20026;-61
2022/01/27 13:15:26;;;;;;;0.28;0.20;;;3.30;99.90;;;;;;5125251;27;20668;-60
2022/01/27 13:18:20;;;;;;;0.40;0.30;;;3.40;99.90;;;;;;5124338;27;20090;-60
2022/01/27 13:21:28;;;;;;;0.52;0.40;;;3.40;99.90;;;;;;5117307;27;20060;-60
2022/01/27 13:24:17;;;;;;;2.30;0.40;;;3.40;99.90;;;;;;5101541;27;20429;-59
2022/01/27 13:27:09;;;;;;;9.32;0.75;;;3.40;99.90;;;;;;5110105;27;20035;-60
2022/01/27 13:29:59;;;;;;;2.20;0.20;;;3.50;99.90;;;;;;5125085;27;20019;-60
2022/01/27 13:32:45;;;;;;;0.73;0.30;;;3.50;99.90;;;;;;5111556;27;20524;-60
2022/01/27 13:35:33;;;;;;;;;;;3.50;99.90;;;;;;5115523;27;20047;-58
2022/01/27 13:38:27;;;;;;;2.78;0.30;;;3.50;99.90;;;;;;5107394;27;20434;-59
2022/01/27 13:41:19;;;;;;;0.68;0.40;;;3.60;99.90;;;;;;5117876;27;20035;-60
2022/01/27 13:44:13;;;;;;;0.70;0.40;;;3.60;99.90;;;;;;5114942;27;20019;-59
2022/01/27 13:47:04;;;;;;;0.35;0.28;;;3.60;99.90;;;;;;5112375;27;20062;-60
2022/01/27 13:49:51;;;;;;;3.25;0.30;;;3.60;99.90;;;;;;5118385;27;20033;-60
2022/01/27 13:52:41;;;;;;;;;;;3.60;99.90;;;;;;5116211;27;20029;-60
2022/01/27 13:55:27;;;;;;;1.40;0.28;;;3.60;99.90;;;;;;5115463;27;19938;-60
2022/01/27 13:58:25;;;;;;;1.33;0.40;;;3.70;99.90;;;;;;5124865;27;20051;-58
2022/01/27 14:01:13;;;;;;;6.82;0.85;;;3.70;99.90;;;;;;5118468;27;20200;-59
2022/01/27 14:03:59;;;;;;;0.88;0.40;;;3.70;99.90;;;;;;5112378;27;20058;-57
2022/01/27 14:06:50;;;;;;;1.00;0.85;;;3.80;99.90;;;;;;5103277;28;20663;-60
2022/01/27 14:09:41;;;;;;;0.20;0.20;;;3.80;99.90;;;;;;5107107;28;20078;-58
2022/01/27 14:13:01;;;;;;;1.58;0.30;;;3.80;99.90;;;;;;5119399;27;20030;-59
2022/01/27 14:15:54;;;;;;;0.60;0.40;;;3.90;99.90;;;;;;5106713;28;20125;-58
2022/01/27 14:18:42;;;;;;;1.17;0.40;;;3.80;99.90;;;;;;5117750;28;20077;-61
2022/01/27 14:21:28;;;;;;;0.50;0.30;;;3.90;99.90;;;;;;5107823;28;20042;-61
2022/01/27 14:24:20;;;;;;;4.70;0.40;;;3.90;99.90;;;;;;5115590;28;20027;-61
2022/01/27 14:27:07;;;;;;;1.90;0.32;;;3.90;99.90;;;;;;5108482;27;20015;-61
2022/01/27 14:29:53;;;;;;;1.83;0.43;;;4.00;99.90;;;;;;5130157;27;20018;-61
2022/01/27 14:32:41;;;;;;;0.98;0.60;;;4.00;99.90;;;;;;5113392;27;20031;-57
2022/01/27 14:35:27;;;;;;;1.77;0.90;;;4.00;99.90;;;;;;5117906;27;20103;-58
2022/01/27 14:38:13;;;;;;;3.60;1.07;;;4.00;99.90;;;;;;5111384;27;20019;-61
2022/01/27 14:40:59;;;;;;;1.13;0.67;;;4.00;99.90;;;;;;5123262;27;20084;-61
2022/01/27 14:43:45;;;;;;;1.90;1.20;;;4.10;99.90;;;;;;5128156;27;20253;-60
2022/01/27 14:46:40;;;;;;;2.15;1.27;;;4.00;99.90;;;;;;5115044;27;20632;-61
2022/01/27 14:49:26;;;;;;;2.20;1.27;;;4.00;99.90;;;;;;5131828;27;20039;-62
2022/01/27 14:52:14;;;;;;;2.30;1.10;;;4.10;99.90;;;;;;5115652;27;20646;-61
2022/01/27 14:55:00;;;;;;;4.80;1.20;;;4.10;99.90;;;;;;5132053;27;20022;-60
2022/01/27 14:57:45;;;;;;;2.33;1.55;;;4.10;99.90;;;;;;5120194;27;20025;-61
2022/01/27 15:00:31;;;;;;;2.50;1.42;;;4.10;99.90;;;;;;5121181;27;20031;-60
2022/01/27 15:03:17;;;;;;;2.77;1.53;;;4.10;99.90;;;;;;5121149;27;20027;-61
2022/01/27 15:06:03;;;;;;;3.40;1.40;;;4.10;99.90;;;;;;5112346;27;20031;-60
2022/01/27 15:08:51;;;;;;;3.47;2.13;;;4.10;99.90;;;;;;5111301;27;20087;-61
2022/01/27 15:11:37;;;;;;;1.95;1.30;;;4.20;99.90;;;;;;5113637;27;20027;-60
2022/01/27 15:20:33;;;;;;;1.88;0.65;;;4.20;99.90;;;;;;5116144;27;20031;-58
2022/01/27 15:23:20;;;;;;;1.77;0.88;;;4.10;99.90;;;;;;5126139;27;20023;-58
2022/01/27 15:26:06;;;;;;;1.52;0.90;;;4.10;99.90;;;;;;5121383;27;20039;-59
2022/01/27 15:28:53;;;;;;;1.30;0.70;;;4.10;99.90;;;;;;5127874;27;20023;-59
2022/01/27 15:31:38;;;;;;;1.35;0.85;;;4.20;99.90;;;;;;5128832;27;20038;-57